createdAt,value
2023-03-01T00:01:14.481Z,0.50
2023-03-01T00:03:42.523Z,0.50
2023-03-01T00:06:10.151Z,0.50
2023-03-01T00:08:37.598Z,0.40
2023-03-01T00:11:18.422Z,0.53
2023-03-01T00:13:49.060Z,0.50
2023-03-01T00:16:31.974Z,0.30
2023-03-01T00:18:59.311Z,0.73
2023-03-01T00:21:27.553Z,0.43
2023-03-01T00:23:55.322Z,0.50
2023-03-01T00:26:24.619Z,0.50
2023-03-01T00:28:52.233Z,0.60
2023-03-01T00:31:21.963Z,0.50
2023-03-01T00:33:49.242Z,0.40
2023-03-01T00:36:17.612Z,0.40
2023-03-01T00:38:46.642Z,0.50
2023-03-01T00:41:16.582Z,0.53
2023-03-01T00:43:44.462Z,0.73
2023-03-01T00:46:14.107Z,0.90
2023-03-01T00:48:41.813Z,1.83
2023-03-01T00:51:10.761Z,1.70
2023-03-01T00:53:38.333Z,2.47
2023-03-01T00:56:06.610Z,2.40
2023-03-01T00:58:34.460Z,2.50
2023-03-01T01:01:02.028Z,3.40
2023-03-01T01:03:29.458Z,2.63
2023-03-01T01:05:56.931Z,4.80
2023-03-01T01:08:24.364Z,4.30
2023-03-01T01:10:51.741Z,3.00
2023-03-01T01:13:19.104Z,4.57
2023-03-01T01:15:46.517Z,3.83
2023-03-01T01:18:13.968Z,4.43
2023-03-01T01:20:41.322Z,4.50
2023-03-01T01:23:08.867Z,3.40
2023-03-01T01:25:37.984Z,3.93
2023-03-01T01:28:05.569Z,3.70
2023-03-01T01:30:33.136Z,4.30
2023-03-01T01:33:00.527Z,5.30
2023-03-01T01:35:27.849Z,4.57
2023-03-01T01:37:55.242Z,2.93
2023-03-01T01:40:22.682Z,2.93
2023-03-01T01:42:50.042Z,1.77
2023-03-01T01:45:29.102Z,1.30
2023-03-01T01:47:58.283Z,3.70
2023-03-01T01:50:25.592Z,7.43
2023-03-01T01:52:53.087Z,3.03
2023-03-01T01:55:23.007Z,3.60
2023-03-01T01:57:55.365Z,5.10
2023-03-01T02:00:24.029Z,7.07
2023-03-01T02:02:56.052Z,5.83
2023-03-01T02:05:30.965Z,5.43
2023-03-01T02:07:59.599Z,4.20
2023-03-01T02:10:27.411Z,3.00
2023-03-01T02:12:55.861Z,3.97
2023-03-01T02:15:24.444Z,2.63
2023-03-01T02:17:52.588Z,4.53
2023-03-01T02:20:33.022Z,4.23
2023-03-01T02:23:00.644Z,6.17
2023-03-01T02:25:54.526Z,6.00
2023-03-01T02:28:26.608Z,3.40
2023-03-01T02:31:14.152Z,3.20
2023-03-01T02:33:41.846Z,5.10
2023-03-01T02:36:20.649Z,6.73
2023-03-01T02:38:48.980Z,7.30
2023-03-01T02:41:17.552Z,8.40
2023-03-01T02:43:45.270Z,6.77
2023-03-01T02:46:23.220Z,6.10
2023-03-01T02:48:52.223Z,6.80
2023-03-01T02:51:38.269Z,7.63
2023-03-01T02:54:05.647Z,7.60
2023-03-01T02:56:33.366Z,7.60
2023-03-01T02:59:01.844Z,8.57
2023-03-01T03:01:37.804Z,6.77
2023-03-01T03:04:06.483Z,8.00
2023-03-01T03:06:34.163Z,8.10
2023-03-01T03:09:02.085Z,7.77
2023-03-01T03:11:31.564Z,8.50
2023-03-01T03:13:58.927Z,8.90
2023-03-01T03:16:26.277Z,8.17
2023-03-01T03:18:53.634Z,9.10
2023-03-01T03:21:20.925Z,8.00
2023-03-01T03:23:48.364Z,9.27
2023-03-01T03:26:16.331Z,9.37
2023-03-01T03:28:43.729Z,10.57
2023-03-01T03:31:11.032Z,10.80
2023-03-01T03:33:38.563Z,8.90
2023-03-01T03:36:06.653Z,9.77
2023-03-01T03:38:34.243Z,8.80
2023-03-01T03:41:03.607Z,7.07
2023-03-01T03:43:32.123Z,6.23
2023-03-01T03:46:00.001Z,5.07
2023-03-01T03:48:27.644Z,4.60
2023-03-01T03:50:56.320Z,4.10
2023-03-01T03:53:24.682Z,3.27
2023-03-01T03:55:52.882Z,3.30
2023-03-01T03:58:21.709Z,3.50
2023-03-01T04:00:49.961Z,3.80
2023-03-01T04:03:18.359Z,5.23
2023-03-01T04:05:45.846Z,6.23
2023-03-01T04:08:13.686Z,5.70
2023-03-01T04:10:42.342Z,8.03
2023-03-01T04:13:13.042Z,8.80
2023-03-01T04:15:40.766Z,9.10
2023-03-01T04:18:08.311Z,8.17
2023-03-01T04:20:36.617Z,7.60
2023-03-01T04:23:14.383Z,7.50
2023-03-01T04:25:43.282Z,8.10
2023-03-01T04:28:11.530Z,7.70
2023-03-01T04:30:39.973Z,7.73
2023-03-01T04:33:07.937Z,8.73
2023-03-01T04:35:38.778Z,8.53
2023-03-01T04:38:06.896Z,8.13
2023-03-01T04:40:34.775Z,8.87
2023-03-01T04:43:02.441Z,7.90
2023-03-01T04:45:29.806Z,7.60
2023-03-01T04:47:59.365Z,6.07
2023-03-01T04:50:26.803Z,5.73
2023-03-01T04:52:54.375Z,5.30
2023-03-01T04:55:21.802Z,6.10
2023-03-01T04:57:49.642Z,6.87
2023-03-01T05:00:23.337Z,6.30
2023-03-01T05:02:56.682Z,6.80
2023-03-01T05:05:26.728Z,5.40
2023-03-01T05:07:55.528Z,5.37
2023-03-01T05:10:24.365Z,3.87
2023-03-01T05:12:53.311Z,4.07
2023-03-01T05:15:22.880Z,3.90
2023-03-01T05:17:51.004Z,4.63
2023-03-01T05:20:18.408Z,3.27
2023-03-01T05:22:45.924Z,3.10
2023-03-01T05:25:15.054Z,2.40
2023-03-01T05:27:42.608Z,2.50
2023-03-01T05:30:16.521Z,2.70
2023-03-01T05:32:48.330Z,2.30
2023-03-01T05:35:16.804Z,1.87
2023-03-01T05:37:44.924Z,2.47
2023-03-01T05:40:17.089Z,2.50
2023-03-01T05:42:45.472Z,2.10
2023-03-01T05:45:13.616Z,2.50
2023-03-01T05:47:46.213Z,2.30
2023-03-01T05:50:15.127Z,2.20
2023-03-01T05:52:42.486Z,1.80
2023-03-01T05:55:10.206Z,2.20
2023-03-01T05:57:37.647Z,2.43
2023-03-01T06:00:07.568Z,3.20
2023-03-01T06:02:34.978Z,2.40
2023-03-01T06:05:02.618Z,2.27
2023-03-01T06:07:30.026Z,1.80
2023-03-01T06:09:57.411Z,1.90
2023-03-01T06:12:24.733Z,1.57
2023-03-01T06:14:52.128Z,1.77
2023-03-01T06:17:19.496Z,1.80
2023-03-01T06:19:48.248Z,1.83
2023-03-01T06:22:15.613Z,1.50
2023-03-01T06:24:42.934Z,1.70
2023-03-01T06:27:10.375Z,1.47
2023-03-01T06:29:37.688Z,2.57
2023-03-01T06:32:05.384Z,3.27
2023-03-01T06:34:33.280Z,2.60
2023-03-01T06:37:00.783Z,2.07
2023-03-01T06:39:29.570Z,1.77
2023-03-01T06:41:57.534Z,1.90
2023-03-01T06:44:24.929Z,1.77
2023-03-01T06:46:52.338Z,2.07
2023-03-01T06:49:21.040Z,1.73
2023-03-01T06:51:48.576Z,1.20
2023-03-01T06:54:16.468Z,1.30
2023-03-01T06:56:43.809Z,1.23
2023-03-01T06:59:11.484Z,0.90
2023-03-01T07:01:40.030Z,1.00
2023-03-01T07:04:07.410Z,0.90
2023-03-01T07:06:34.844Z,3.90
2023-03-01T07:09:02.242Z,14.57
2023-03-01T07:11:29.523Z,3.03
2023-03-01T07:13:57.015Z,1.57
2023-03-01T07:16:24.402Z,1.30
2023-03-01T07:18:51.769Z,1.47
2023-03-01T07:21:19.124Z,1.60
2023-03-01T07:23:49.249Z,1.03
2023-03-01T07:26:16.674Z,0.90
2023-03-01T07:28:44.047Z,1.00
2023-03-01T07:31:11.407Z,0.93
2023-03-01T07:33:38.644Z,0.93
2023-03-01T07:36:06.807Z,0.87
2023-03-01T07:38:34.327Z,0.87
2023-03-01T07:41:03.090Z,0.90
2023-03-01T07:43:30.848Z,1.10
2023-03-01T07:46:01.935Z,0.80
2023-03-01T07:48:30.156Z,1.23
2023-03-01T07:51:00.526Z,1.37
2023-03-01T07:53:27.949Z,1.40
2023-03-01T07:56:09.008Z,1.30
2023-03-01T07:58:37.014Z,1.40
2023-03-01T08:01:05.364Z,2.77
2023-03-01T08:03:33.084Z,3.20
2023-03-01T08:06:04.213Z,2.40
2023-03-01T08:08:32.003Z,1.70
2023-03-01T08:11:00.283Z,1.60
2023-03-01T08:13:27.763Z,1.20
2023-03-01T08:15:55.100Z,0.93
2023-03-01T08:18:22.845Z,2.23
2023-03-01T08:20:50.282Z,1.80
2023-03-01T08:23:17.649Z,1.50
2023-03-01T08:25:45.168Z,1.50
2023-03-01T08:28:12.487Z,2.23
2023-03-01T08:30:39.803Z,1.50
2023-03-01T08:33:07.282Z,1.80
2023-03-01T08:35:34.609Z,1.47
2023-03-01T08:38:02.002Z,1.33
2023-03-01T08:40:29.446Z,1.03
2023-03-01T08:42:56.859Z,1.20
2023-03-01T08:45:24.239Z,1.20
2023-03-01T08:47:54.426Z,0.87
2023-03-01T08:50:21.994Z,0.80
2023-03-01T08:52:49.446Z,0.90
2023-03-01T08:55:18.292Z,0.80
2023-03-01T08:57:45.911Z,0.70
2023-03-01T09:00:14.190Z,0.80
2023-03-01T09:02:41.533Z,0.90
2023-03-01T09:05:09.161Z,1.03
2023-03-01T09:07:36.489Z,0.80
2023-03-01T09:10:03.922Z,1.13
2023-03-01T09:12:31.404Z,1.10
2023-03-01T09:14:58.802Z,0.80
2023-03-01T09:17:26.056Z,0.90
2023-03-01T09:19:53.486Z,0.80
2023-03-01T09:22:20.833Z,0.50
2023-03-01T09:24:48.282Z,0.43
2023-03-01T09:27:15.766Z,0.57
2023-03-01T09:29:43.229Z,0.60
2023-03-01T09:32:11.060Z,0.80
2023-03-01T09:34:58.566Z,0.90
2023-03-01T09:37:25.971Z,1.00
2023-03-01T09:39:53.348Z,0.60
2023-03-01T09:42:20.797Z,0.30
2023-03-01T09:44:51.608Z,0.30
2023-03-01T09:47:24.485Z,0.37
2023-03-01T09:50:12.200Z,0.30
2023-03-01T09:52:44.270Z,0.60
2023-03-01T09:55:22.513Z,0.30
2023-03-01T09:57:55.671Z,6.37
2023-03-01T10:00:25.647Z,3.00
2023-03-01T10:03:12.410Z,1.80
2023-03-01T10:05:43.970Z,0.50
2023-03-01T10:08:11.368Z,0.47
2023-03-01T10:10:44.853Z,0.40
2023-03-01T10:13:24.210Z,0.30
2023-03-01T10:16:17.824Z,0.20
2023-03-01T10:18:48.288Z,0.50
2023-03-01T10:21:22.192Z,0.53
2023-03-01T10:23:53.487Z,0.33
2023-03-01T10:26:41.265Z,0.50
2023-03-01T10:29:10.243Z,0.50
2023-03-01T10:31:48.756Z,0.33
2023-03-01T10:34:16.202Z,0.30
2023-03-01T10:36:44.342Z,0.30
2023-03-01T10:39:16.615Z,0.30
2023-03-01T10:41:56.166Z,0.30
2023-03-01T10:44:39.008Z,0.50
2023-03-01T10:47:06.696Z,0.50
2023-03-01T10:49:34.125Z,0.30
2023-03-01T10:52:12.903Z,0.30
2023-03-01T10:54:42.628Z,0.50
2023-03-01T10:57:24.364Z,0.33
2023-03-01T11:00:02.726Z,0.40
2023-03-01T11:02:31.202Z,0.33
2023-03-01T11:04:58.873Z,0.90
2023-03-01T11:07:26.366Z,0.60
2023-03-01T11:09:54.137Z,0.30
2023-03-01T11:12:22.526Z,0.90
2023-03-01T11:14:55.489Z,0.73
2023-03-01T11:17:31.650Z,0.60
2023-03-01T11:20:24.701Z,0.60
2023-03-01T11:22:54.251Z,0.73
2023-03-01T11:25:25.547Z,0.83
2023-03-01T11:27:53.782Z,0.67
2023-03-01T11:30:27.246Z,0.63
2023-03-01T11:33:09.980Z,0.60
2023-03-01T11:35:39.415Z,0.60
2023-03-01T11:38:17.267Z,0.50
2023-03-01T11:40:56.020Z,0.30
2023-03-01T11:43:30.208Z,0.43
2023-03-01T11:46:00.525Z,0.97
2023-03-01T11:48:49.823Z,0.83
2023-03-01T11:51:37.887Z,0.70
2023-03-01T11:54:11.324Z,1.10
2023-03-01T11:56:50.999Z,1.30
2023-03-01T11:59:21.131Z,1.30
2023-03-01T12:02:06.748Z,1.63
2023-03-01T12:04:52.765Z,1.20
2023-03-01T12:07:35.363Z,1.70
2023-03-01T12:10:05.484Z,2.97
2023-03-01T12:12:38.761Z,3.43
2023-03-01T12:15:17.638Z,4.23
2023-03-01T12:17:50.730Z,3.70
2023-03-01T12:20:21.064Z,3.27
2023-03-01T12:23:19.601Z,4.47
2023-03-01T12:25:51.006Z,3.27
2023-03-01T12:28:24.133Z,3.73
2023-03-01T12:31:00.653Z,2.90
2023-03-01T12:33:40.207Z,2.87
2023-03-01T12:36:10.624Z,1.60
2023-03-01T12:38:48.088Z,3.37
2023-03-01T12:41:33.868Z,3.20
2023-03-01T12:44:19.609Z,4.30
2023-03-01T12:46:53.854Z,3.97
2023-03-01T12:49:24.288Z,2.53
2023-03-01T12:52:02.698Z,3.27
2023-03-01T12:54:34.968Z,2.50
2023-03-01T12:57:08.943Z,3.20
2023-03-01T12:59:37.557Z,2.70
2023-03-01T13:02:23.611Z,3.17
2023-03-01T13:05:21.245Z,3.57
2023-03-01T13:07:54.763Z,2.13
2023-03-01T13:10:36.113Z,1.90
2023-03-01T13:13:05.235Z,1.60
2023-03-01T13:15:32.723Z,1.40
2023-03-01T13:18:04.840Z,2.60
2023-03-01T13:20:34.818Z,2.90
2023-03-01T13:23:09.137Z,3.70
2023-03-01T13:25:42.534Z,3.00
2023-03-01T13:28:33.381Z,3.67
2023-03-01T13:31:01.085Z,3.70
2023-03-01T13:33:37.520Z,4.80
2023-03-01T13:36:05.140Z,5.27
2023-03-01T13:38:39.797Z,4.73
2023-03-01T13:41:07.722Z,4.93
2023-03-01T13:43:39.561Z,3.97
2023-03-01T13:46:12.360Z,4.40
2023-03-01T13:48:40.809Z,2.63
2023-03-01T13:51:10.841Z,5.23
2023-03-01T13:53:40.967Z,6.07
2023-03-01T13:56:16.248Z,5.23
2023-03-01T13:58:49.705Z,5.20
2023-03-01T14:01:28.312Z,5.60
2023-03-01T14:03:56.733Z,5.03
2023-03-01T14:06:27.240Z,5.07
2023-03-01T14:09:03.490Z,5.50
2023-03-01T14:11:37.436Z,5.10
2023-03-01T14:14:14.052Z,4.90
2023-03-01T14:16:41.434Z,5.03
2023-03-01T14:19:08.729Z,4.37
2023-03-01T14:21:37.526Z,4.27
2023-03-01T14:24:05.224Z,4.97
2023-03-01T14:26:34.123Z,4.50
2023-03-01T14:29:01.577Z,5.40
2023-03-01T14:31:36.168Z,4.40
2023-03-01T14:34:06.449Z,4.80
2023-03-01T14:36:35.441Z,3.93
2023-03-01T14:39:06.173Z,4.30
2023-03-01T14:41:36.325Z,4.63
2023-03-01T14:44:06.721Z,4.60
2023-03-01T14:46:39.301Z,4.67
2023-03-01T14:49:12.855Z,4.07
2023-03-01T14:51:41.023Z,4.20
2023-03-01T14:54:22.855Z,4.60
2023-03-01T14:56:50.370Z,4.00
2023-03-01T14:59:17.729Z,4.93
2023-03-01T15:01:45.268Z,4.27
2023-03-01T15:04:14.005Z,4.07
2023-03-01T15:06:41.578Z,4.20
2023-03-01T15:09:09.388Z,4.87
2023-03-01T15:11:38.135Z,4.97
2023-03-01T15:14:25.488Z,4.40
2023-03-01T15:16:52.811Z,4.83
2023-03-01T15:19:20.292Z,4.80
2023-03-01T15:21:50.539Z,4.70
2023-03-01T15:24:20.946Z,4.93
2023-03-01T15:26:58.796Z,5.00
2023-03-01T15:29:31.284Z,4.50
2023-03-01T15:32:05.178Z,4.50
2023-03-01T15:34:34.083Z,4.63
2023-03-01T15:37:03.168Z,4.60
2023-03-01T15:39:39.206Z,4.73
2023-03-01T15:42:08.123Z,4.57
2023-03-01T15:44:43.319Z,4.47
2023-03-01T15:47:31.999Z,4.80
2023-03-01T15:50:00.263Z,4.50
2023-03-01T15:52:30.597Z,5.17
2023-03-01T15:54:59.383Z,5.87
2023-03-01T15:57:26.775Z,6.97
2023-03-01T15:59:56.844Z,7.57
2023-03-01T16:02:25.580Z,8.73
2023-03-01T16:04:54.853Z,8.17
2023-03-01T16:07:22.215Z,9.63
2023-03-01T16:09:49.574Z,9.47
2023-03-01T16:12:18.368Z,9.73
2023-03-01T16:14:45.835Z,10.77
2023-03-01T16:17:13.246Z,10.27
2023-03-01T16:19:42.136Z,10.37
2023-03-01T16:22:12.847Z,9.93
2023-03-01T16:24:41.687Z,10.83
2023-03-01T16:27:09.180Z,10.93
2023-03-01T16:29:37.051Z,11.50
2023-03-01T16:32:04.702Z,12.40
2023-03-01T16:34:32.301Z,12.47
2023-03-01T16:36:59.629Z,12.43
2023-03-01T16:39:26.971Z,13.23
2023-03-01T16:41:54.288Z,13.43
2023-03-01T16:44:21.998Z,13.93
2023-03-01T16:46:49.370Z,14.10
2023-03-01T16:49:16.848Z,13.97
2023-03-01T16:51:45.411Z,14.60
2023-03-01T16:54:12.733Z,14.27
2023-03-01T16:56:40.844Z,14.57
2023-03-01T16:59:08.610Z,15.30
2023-03-01T17:01:42.026Z,14.40
2023-03-01T17:04:12.344Z,14.57
2023-03-01T17:06:39.854Z,15.53
2023-03-01T17:09:07.210Z,14.70
2023-03-01T17:11:34.852Z,14.93
2023-03-01T17:14:02.266Z,15.97
2023-03-01T17:16:29.691Z,14.80
2023-03-01T17:18:57.762Z,14.80
2023-03-01T17:21:25.483Z,15.53
2023-03-01T17:23:59.768Z,15.80
2023-03-01T17:26:29.472Z,14.07
2023-03-01T17:28:57.709Z,14.93
2023-03-01T17:31:25.140Z,15.83
2023-03-01T17:33:52.486Z,14.83
2023-03-01T17:36:20.144Z,15.03
2023-03-01T17:38:47.632Z,14.47
2023-03-01T17:41:17.860Z,14.73
2023-03-01T17:43:47.970Z,15.27
2023-03-01T17:46:15.521Z,15.17
2023-03-01T17:48:43.033Z,15.63
2023-03-01T17:51:11.614Z,15.67
2023-03-01T17:53:39.487Z,15.10
2023-03-01T17:56:08.284Z,15.73
2023-03-01T17:58:35.658Z,15.00
2023-03-01T18:01:14.180Z,15.90
2023-03-01T18:03:42.368Z,14.93
2023-03-01T18:06:16.944Z,15.27
2023-03-01T18:08:45.403Z,15.87
2023-03-01T18:11:13.729Z,17.03
2023-03-01T18:13:41.406Z,15.77
2023-03-01T18:16:10.083Z,14.77
2023-03-01T18:18:38.037Z,15.60
2023-03-01T18:21:05.573Z,16.77
2023-03-01T18:23:33.487Z,17.17
2023-03-01T18:26:01.969Z,16.47
2023-03-01T18:28:30.203Z,17.03
2023-03-01T18:31:02.851Z,16.20
2023-03-01T18:33:33.207Z,16.50
2023-03-01T18:36:02.533Z,16.37
2023-03-01T18:38:30.887Z,16.37
2023-03-01T18:40:58.459Z,15.93
2023-03-01T18:43:28.964Z,16.60
2023-03-01T18:45:58.225Z,16.27
2023-03-01T18:48:26.163Z,15.27
2023-03-01T18:50:53.513Z,16.93
2023-03-01T18:53:20.886Z,17.23
2023-03-01T18:55:48.244Z,16.93
2023-03-01T18:58:15.843Z,16.13
2023-03-01T19:00:43.247Z,18.60
2023-03-01T19:03:11.383Z,17.00
2023-03-01T19:05:41.723Z,16.87
2023-03-01T19:08:09.103Z,17.03
2023-03-01T19:10:36.563Z,16.73
2023-03-01T19:13:04.325Z,17.87
2023-03-01T19:15:31.628Z,15.67
2023-03-01T19:17:59.225Z,16.37
2023-03-01T19:20:26.570Z,16.73
2023-03-01T19:22:53.844Z,16.07
2023-03-01T19:25:21.174Z,16.17
2023-03-01T19:27:49.302Z,16.47
2023-03-01T19:30:16.821Z,16.97
2023-03-01T19:32:44.492Z,16.90
2023-03-01T19:35:11.787Z,16.97
2023-03-01T19:37:39.164Z,17.13
2023-03-01T19:40:06.847Z,17.30
2023-03-01T19:42:34.199Z,16.97
2023-03-01T19:45:01.559Z,17.47
2023-03-01T19:47:28.925Z,16.80
2023-03-01T19:49:56.429Z,16.73
2023-03-01T19:52:23.910Z,16.47
2023-03-01T19:54:53.770Z,16.53
2023-03-01T19:57:23.241Z,17.27
2023-03-01T19:59:50.597Z,17.17
2023-03-01T20:02:18.499Z,16.57
2023-03-01T20:04:45.967Z,16.10
2023-03-01T20:07:13.244Z,17.10
2023-03-01T20:09:41.762Z,17.00
2023-03-01T20:12:09.037Z,17.33
2023-03-01T20:14:36.487Z,17.33
2023-03-01T20:17:03.870Z,16.87
2023-03-01T20:19:31.362Z,16.90
2023-03-01T20:21:58.921Z,17.20
2023-03-01T20:24:26.319Z,17.30
2023-03-01T20:26:53.645Z,18.07
2023-03-01T20:29:21.958Z,18.27
2023-03-01T20:31:49.450Z,18.10
2023-03-01T20:34:17.031Z,18.10
2023-03-01T20:36:44.613Z,17.33
2023-03-01T20:39:11.974Z,17.40
2023-03-01T20:41:40.207Z,18.30
2023-03-01T20:44:07.687Z,17.03
2023-03-01T20:46:36.021Z,17.00
2023-03-01T20:49:04.335Z,17.80
2023-03-01T20:51:31.843Z,17.60
2023-03-01T20:53:59.217Z,17.43
2023-03-01T20:56:27.539Z,18.17
2023-03-01T20:58:58.531Z,16.67
2023-03-01T21:01:26.042Z,17.03
2023-03-01T21:03:53.540Z,17.43
2023-03-01T21:06:20.861Z,17.07
2023-03-01T21:08:48.331Z,17.50
2023-03-01T21:11:16.726Z,17.80
2023-03-01T21:13:44.683Z,18.00
2023-03-01T21:16:17.192Z,17.63
2023-03-01T21:18:44.696Z,16.87
2023-03-01T21:21:14.010Z,17.17
2023-03-01T21:23:42.464Z,17.97
2023-03-01T21:26:14.277Z,17.60
2023-03-01T21:28:43.007Z,17.07
2023-03-01T21:31:11.948Z,17.80
2023-03-01T21:33:39.914Z,17.83
2023-03-01T21:36:08.996Z,17.57
2023-03-01T21:38:37.656Z,18.07
2023-03-01T21:41:09.557Z,18.40
2023-03-01T21:43:37.331Z,18.23
2023-03-01T21:46:06.008Z,16.77
2023-03-01T21:48:33.608Z,16.93
2023-03-01T21:51:01.860Z,17.30
2023-03-01T21:53:30.810Z,18.03
2023-03-01T21:55:58.206Z,16.67
2023-03-01T21:58:28.006Z,17.47
2023-03-01T22:00:59.262Z,18.67
2023-03-01T22:03:26.809Z,18.43
2023-03-01T22:06:02.205Z,17.47
2023-03-01T22:08:29.805Z,18.80
2023-03-01T22:10:57.079Z,17.87
2023-03-01T22:13:24.500Z,18.37
2023-03-01T22:15:51.817Z,16.67
2023-03-01T22:18:19.237Z,18.67
2023-03-01T22:20:46.684Z,17.53
2023-03-01T22:23:14.119Z,18.10
2023-03-01T22:25:42.593Z,16.77
2023-03-01T22:28:09.985Z,17.80
2023-03-01T22:30:37.573Z,18.57
2023-03-01T22:33:05.084Z,19.20
2023-03-01T22:35:32.655Z,19.57
2023-03-01T22:38:00.102Z,18.77
2023-03-01T22:40:27.449Z,19.03
2023-03-01T22:42:54.879Z,18.87
2023-03-01T22:45:22.307Z,17.87
2023-03-01T22:47:49.691Z,17.53
2023-03-01T22:50:17.335Z,17.80
2023-03-01T22:52:44.707Z,17.93
2023-03-01T22:55:12.526Z,18.77
2023-03-01T22:57:39.846Z,19.40
2023-03-01T23:00:13.371Z,18.67
2023-03-01T23:02:41.736Z,18.30
2023-03-01T23:05:10.009Z,18.90
2023-03-01T23:07:37.895Z,18.97
2023-03-01T23:10:06.159Z,17.97
2023-03-01T23:12:33.689Z,19.00
2023-03-01T23:15:01.150Z,20.07
2023-03-01T23:17:28.689Z,19.63
2023-03-01T23:19:56.042Z,18.93
2023-03-01T23:22:23.562Z,17.90
2023-03-01T23:24:50.929Z,19.43
2023-03-01T23:27:18.424Z,18.33
2023-03-01T23:29:46.108Z,20.20
2023-03-01T23:32:14.953Z,18.13
2023-03-01T23:34:43.923Z,18.13
2023-03-01T23:37:11.528Z,19.17
2023-03-01T23:39:40.695Z,18.53
2023-03-01T23:42:08.640Z,18.37
2023-03-01T23:44:36.078Z,19.03
2023-03-01T23:47:03.618Z,18.97
2023-03-01T23:49:31.118Z,20.03
2023-03-01T23:51:58.512Z,19.57
2023-03-01T23:54:26.521Z,19.40
2023-03-01T23:56:54.009Z,18.73
2023-03-01T23:59:22.571Z,20.17
